Time;durP1;ratioP1;P1;durP2;ratioP2;P2;SDS_P1;SDS_P2;PMS_P1;PMS_P2;Temp;Humidity;BMP_temperature;BMP_pressure;BME280_temperature;BME280_humidity;BME280_pressure;Samples;Min_cycle;Max_cycle;Signal;HPM_P1;HPM_P2
2023/08/03 00:02:17;;;;;;;4.82;1.92;;;17.50;99.90;;;;;;5075380;28;20075;-66
2023/08/03 00:04:43;;;;;;;4.53;2.20;;;17.50;99.90;;;;;;5075592;28;20454;-66
2023/08/03 00:07:08;;;;;;;4.85;2.08;;;17.50;99.90;;;;;;5074967;28;20029;-66
2023/08/03 00:09:34;;;;;;;3.22;2.05;;;17.50;99.90;;;;;;5075180;28;20041;-65
2023/08/03 00:12:00;;;;;;;3.50;2.25;;;17.50;99.90;;;;;;5075224;28;20024;-66
2023/08/03 00:14:25;;;;;;;3.60;1.98;;;17.50;99.90;;;;;;5074836;28;20116;-66
2023/08/03 00:16:51;;;;;;;6.40;1.85;;;17.50;99.90;;;;;;5074723;28;20033;-66
2023/08/03 00:19:16;;;;;;;5.65;2.47;;;17.50;99.90;;;;;;5075271;28;20434;-66
2023/08/03 00:21:42;;;;;;;3.83;2.15;;;17.40;99.90;;;;;;5074831;28;20036;-66
2023/08/03 00:24:08;;;;;;;3.03;2.03;;;17.40;99.90;;;;;;5075086;28;20044;-66
2023/08/03 00:26:34;;;;;;;4.00;2.22;;;17.40;99.90;;;;;;5075162;28;20028;-66
2023/08/03 00:29:00;;;;;;;2.60;2.33;;;17.30;99.90;;;;;;5074697;28;20466;-66
2023/08/03 00:31:25;;;;;;;2.55;2.05;;;17.30;99.90;;;;;;5074495;28;20039;-66
2023/08/03 00:33:51;;;;;;;2.28;2.10;;;17.20;99.90;;;;;;5074685;28;20107;-66
2023/08/03 00:36:17;;;;;;;4.10;2.45;;;17.20;99.90;;;;;;5074320;28;20115;-66
2023/08/03 00:38:42;;;;;;;3.08;1.98;;;17.20;99.90;;;;;;5073378;28;20032;-66
2023/08/03 00:41:08;;;;;;;4.05;2.15;;;17.20;99.90;;;;;;5073368;28;20462;-65
2023/08/03 00:43:34;;;;;;;4.63;2.17;;;17.20;99.90;;;;;;5074281;28;20108;-66
2023/08/03 00:45:59;;;;;;;4.97;2.58;;;17.20;99.90;;;;;;5074526;28;20099;-65
2023/08/03 00:48:25;;;;;;;2.90;2.60;;;17.10;99.90;;;;;;5074423;28;20099;-66
2023/08/03 00:50:50;;;;;;;4.43;2.22;;;17.10;99.90;;;;;;5074130;28;20150;-66
2023/08/03 00:53:16;;;;;;;4.30;2.17;;;17.10;99.90;;;;;;5074157;28;20472;-65
2023/08/03 00:55:42;;;;;;;12.80;2.75;;;17.20;99.90;;;;;;5074437;28;20024;-66
2023/08/03 00:58:07;;;;;;;2.42;2.17;;;17.20;99.90;;;;;;5073935;28;20029;-65
2023/08/03 01:00:34;;;;;;;4.13;2.42;;;17.20;99.90;;;;;;5074586;28;20351;-66
2023/08/03 01:03:00;;;;;;;4.47;2.08;;;17.20;99.90;;;;;;5074440;28;20032;-66
2023/08/03 01:05:26;;;;;;;2.38;2.10;;;17.20;99.90;;;;;;5073140;28;20063;-65
2023/08/03 01:07:52;;;;;;;3.53;1.98;;;17.20;99.90;;;;;;5074016;28;20032;-66
2023/08/03 01:10:18;;;;;;;5.80;2.22;;;17.20;99.90;;;;;;5074156;28;20103;-66
2023/08/03 01:12:44;;;;;;;5.55;2.22;;;17.20;99.90;;;;;;5074179;28;20127;-66
2023/08/03 01:15:10;;;;;;;3.53;2.40;;;17.30;99.90;;;;;;5074075;28;20486;-66
2023/08/03 01:17:36;;;;;;;3.97;1.92;;;17.20;99.90;;;;;;5073944;28;20382;-66
2023/08/03 01:20:01;;;;;;;2.90;2.65;;;17.20;99.90;;;;;;5073983;28;20096;-66
2023/08/03 01:22:30;;;;;;;4.28;2.30;;;17.20;99.90;;;;;;5073696;28;20090;-66
2023/08/03 01:24:55;;;;;;;4.05;2.13;;;17.20;99.90;;;;;;5074165;28;20531;-65
2023/08/03 01:27:21;;;;;;;4.97;1.90;;;17.20;99.90;;;;;;5073853;28;20041;-65
2023/08/03 01:29:47;;;;;;;4.03;2.20;;;17.10;99.90;;;;;;5073660;28;20114;-66
2023/08/03 01:32:13;;;;;;;4.03;2.17;;;17.10;99.90;;;;;;5073500;28;20036;-66
2023/08/03 01:34:38;;;;;;;3.55;2.33;;;17.10;99.90;;;;;;5073541;28;20033;-66
2023/08/03 01:37:04;;;;;;;4.05;2.42;;;17.10;99.90;;;;;;5073365;28;20154;-65
2023/08/03 01:39:30;;;;;;;4.13;2.42;;;17.10;99.90;;;;;;5074009;28;20488;-66
2023/08/03 01:41:55;;;;;;;3.67;1.85;;;17.20;99.90;;;;;;5073818;28;20029;-65
2023/08/03 01:44:26;;;;;;;3.65;2.45;;;17.20;99.90;;;;;;5073716;28;20036;-65
2023/08/03 01:46:53;;;;;;;4.05;2.50;;;17.20;99.90;;;;;;5072341;28;20033;-66
2023/08/03 01:49:21;;;;;;;5.22;2.00;;;17.20;99.90;;;;;;5073539;28;20028;-66
2023/08/03 01:51:47;;;;;;;4.88;2.60;;;17.30;99.90;;;;;;5072028;28;20040;-66
2023/08/03 01:54:14;;;;;;;3.65;2.13;;;17.30;99.90;;;;;;5073930;28;20033;-66
2023/08/03 01:56:39;;;;;;;3.35;2.22;;;17.30;99.90;;;;;;5075562;28;20037;-65
2023/08/03 01:59:05;;;;;;;3.60;2.13;;;17.30;99.90;;;;;;5077602;28;20039;-66
2023/08/03 02:01:31;;;;;;;5.57;2.75;;;17.30;99.90;;;;;;5077675;28;20025;-67
2023/08/03 02:03:56;;;;;;;4.38;2.50;;;17.30;99.90;;;;;;5077648;28;20035;-66
2023/08/03 02:06:22;;;;;;;4.18;2.35;;;17.30;99.90;;;;;;5077590;28;20279;-66
2023/08/03 02:08:47;;;;;;;2.50;2.30;;;17.30;99.90;;;;;;5077476;28;20028;-66
2023/08/03 02:11:13;;;;;;;4.05;2.50;;;17.20;99.90;;;;;;5077211;28;20453;-66
2023/08/03 02:13:39;;;;;;;5.88;2.45;;;17.20;99.90;;;;;;5077673;28;20032;-65
2023/08/03 02:16:09;;;;;;;7.68;2.60;;;17.30;99.90;;;;;;5077310;28;20032;-65
2023/08/03 02:18:34;;;;;;;3.42;2.63;;;17.30;99.90;;;;;;5077284;28;20035;-65
2023/08/03 02:21:00;;;;;;;5.93;2.65;;;17.30;99.90;;;;;;5077293;28;20401;-66
2023/08/03 02:23:26;;;;;;;6.63;2.50;;;17.30;99.90;;;;;;5077098;28;20052;-66
2023/08/03 02:25:52;;;;;;;2.85;2.50;;;17.40;99.90;;;;;;5077203;28;20029;-66
2023/08/03 02:28:17;;;;;;;4.07;2.58;;;17.50;99.90;;;;;;5077397;28;20067;-66
2023/08/03 02:30:43;;;;;;;2.50;2.30;;;17.50;99.90;;;;;;5077183;28;20020;-66
2023/08/03 02:33:09;;;;;;;4.25;2.55;;;17.60;99.90;;;;;;5077055;28;20063;-65
2023/08/03 02:35:37;;;;;;;3.80;2.10;;;17.70;99.90;;;;;;5075737;28;20021;-66
2023/08/03 02:38:03;;;;;;;3.25;1.90;;;17.70;99.90;;;;;;5076963;28;20032;-66
2023/08/03 02:40:29;;;;;;;4.97;2.33;;;17.70;99.90;;;;;;5077055;28;20078;-66
2023/08/03 02:42:55;;;;;;;4.55;2.15;;;17.80;99.90;;;;;;5076561;28;20464;-66
2023/08/03 02:45:20;;;;;;;2.55;1.88;;;17.80;99.90;;;;;;5077139;28;20065;-65
2023/08/03 02:47:46;;;;;;;6.40;1.98;;;17.90;99.90;;;;;;5076566;28;20029;-65
2023/08/03 02:50:13;;;;;;;4.53;2.20;;;18.00;99.90;;;;;;5075628;28;20111;-66
2023/08/03 02:52:38;;;;;;;4.35;2.10;;;18.00;99.90;;;;;;5076677;28;20017;-66
2023/08/03 02:55:04;;;;;;;3.08;1.80;;;18.10;99.90;;;;;;5076386;28;20100;-66
2023/08/03 02:57:30;;;;;;;4.60;2.30;;;18.10;99.90;;;;;;5076492;28;20037;-66
2023/08/03 02:59:55;;;;;;;2.55;1.70;;;18.20;99.90;;;;;;5076254;28;20063;-66
2023/08/03 03:02:21;;;;;;;2.97;1.83;;;18.20;99.90;;;;;;5076586;28;20461;-66
2023/08/03 03:04:47;;;;;;;2.78;1.70;;;18.40;99.90;;;;;;5076458;28;20032;-66
2023/08/03 03:07:12;;;;;;;2.25;1.70;;;18.40;99.90;;;;;;5076399;28;20036;-67
2023/08/03 03:09:38;;;;;;;4.45;2.15;;;18.40;99.90;;;;;;5076105;28;20024;-66
2023/08/03 03:12:04;;;;;;;4.22;2.00;;;18.40;99.90;;;;;;5076157;28;20020;-66
2023/08/03 03:14:29;;;;;;;2.40;2.00;;;18.50;99.90;;;;;;5075991;28;20035;-67
2023/08/03 03:16:55;;;;;;;3.20;1.80;;;18.50;99.90;;;;;;5076449;28;20063;-66
2023/08/03 03:19:20;;;;;;;3.10;2.08;;;18.60;99.90;;;;;;5075943;28;20025;-67
2023/08/03 03:21:46;;;;;;;1.77;1.67;;;18.60;99.90;;;;;;5076261;28;20100;-66
2023/08/03 03:24:12;;;;;;;4.30;2.22;;;18.70;99.90;;;;;;5076131;28;20049;-66
2023/08/03 03:26:37;;;;;;;4.75;2.35;;;18.80;99.90;;;;;;5076070;28;20207;-66
2023/08/03 03:29:03;;;;;;;7.22;2.50;;;19.00;99.90;;;;;;5074726;28;20029;-66
2023/08/03 03:31:28;;;;;;;4.10;2.22;;;19.00;99.90;;;;;;5075887;28;20028;-67
2023/08/03 03:33:54;;;;;;;2.40;2.20;;;19.10;99.90;;;;;;5075934;28;20078;-67
2023/08/03 03:36:20;;;;;;;1.88;1.77;;;19.10;99.90;;;;;;5074203;28;20496;-66
2023/08/03 03:38:45;;;;;;;3.67;1.70;;;19.10;99.90;;;;;;5075807;28;20060;-67
2023/08/03 03:41:11;;;;;;;5.53;2.33;;;19.10;99.90;;;;;;5074521;28;20355;-66
2023/08/03 03:43:36;;;;;;;4.00;2.03;;;19.10;99.90;;;;;;5074437;28;20025;-66
2023/08/03 03:46:02;;;;;;;5.78;2.10;;;19.20;99.90;;;;;;5075953;28;20020;-67
2023/08/03 03:48:28;;;;;;;2.38;2.17;;;19.30;99.90;;;;;;5075984;28;20092;-66
2023/08/03 03:50:54;;;;;;;2.28;2.05;;;19.30;99.90;;;;;;5075955;28;20051;-67
2023/08/03 03:53:20;;;;;;;2.97;2.05;;;19.30;99.90;;;;;;5075343;28;20486;-66
2023/08/03 03:55:45;;;;;;;4.43;2.40;;;19.30;99.90;;;;;;5075503;28;20031;-67
2023/08/03 03:58:11;;;;;;;3.45;2.03;;;19.40;99.90;;;;;;5075469;28;20367;-67
2023/08/03 04:00:40;;;;;;;3.00;2.42;;;19.40;99.90;;;;;;5074746;28;20020;-67
2023/08/03 04:03:09;;;;;;;2.90;1.60;;;19.50;99.90;;;;;;5075482;28;20485;-67
2023/08/03 04:05:35;;;;;;;4.20;2.00;;;19.60;99.90;;;;;;5075065;28;20024;-67
2023/08/03 04:08:01;;;;;;;2.47;1.50;;;19.60;99.90;;;;;;5074105;28;20082;-63
2023/08/03 04:10:28;;;;;;;2.55;1.10;;;19.80;99.90;;;;;;5075246;28;20025;-63
2023/08/03 04:12:53;;;;;;;1.75;1.58;;;19.90;99.90;;;;;;5075179;28;20020;-63
2023/08/03 04:15:19;;;;;;;5.28;1.40;;;20.00;99.90;;;;;;5075054;28;20520;-63
2023/08/03 04:17:45;;;;;;;2.30;1.30;;;20.10;99.90;;;;;;5074725;28;20040;-63
2023/08/03 04:20:12;;;;;;;2.95;1.40;;;20.20;99.90;;;;;;5074533;28;20070;-63
2023/08/03 04:22:38;;;;;;;2.35;0.95;;;20.20;99.90;;;;;;5074863;28;20055;-63
2023/08/03 04:25:04;;;;;;;3.22;1.17;;;20.40;99.90;;;;;;5075130;28;20025;-67
2023/08/03 04:27:30;;;;;;;2.50;0.80;;;20.50;99.90;;;;;;5074804;28;20070;-67
2023/08/03 04:29:55;;;;;;;5.43;1.13;;;20.50;99.90;;;;;;5074539;28;20107;-67
2023/08/03 04:32:21;;;;;;;3.60;1.08;;;20.40;99.90;;;;;;5074574;28;20025;-67
2023/08/03 04:34:46;;;;;;;5.18;0.73;;;20.40;99.90;;;;;;5073574;28;20109;-67
2023/08/03 04:37:12;;;;;;;2.22;0.88;;;20.30;99.90;;;;;;5074576;28;20198;-67
2023/08/03 04:39:38;;;;;;;1.50;0.68;;;20.30;99.90;;;;;;5074217;28;20028;-67
2023/08/03 04:42:04;;;;;;;1.70;0.60;;;20.20;99.90;;;;;;5074472;28;20078;-66
2023/08/03 04:44:29;;;;;;;3.00;0.68;;;20.20;99.90;;;;;;5074520;28;20489;-67
2023/08/03 04:46:55;;;;;;;6.15;0.98;;;20.10;99.90;;;;;;5073704;28;20354;-66
2023/08/03 04:49:22;;;;;;;0.98;0.40;;;20.10;99.90;;;;;;5074571;28;20024;-67
2023/08/03 04:51:49;;;;;;;1.17;0.75;;;20.00;99.90;;;;;;5074611;28;20024;-67
2023/08/03 04:54:15;;;;;;;6.82;1.00;;;20.10;99.90;;;;;;5074320;28;20028;-67
2023/08/03 04:56:41;;;;;;;1.20;0.43;;;20.10;99.90;;;;;;5073778;28;20040;-67
2023/08/03 04:59:06;;;;;;;2.17;0.80;;;20.10;99.90;;;;;;5072944;28;20063;-66
2023/08/03 05:01:32;;;;;;;5.85;0.77;;;20.20;99.90;;;;;;5074018;28;20021;-66
2023/08/03 05:04:00;;;;;;;2.05;0.82;;;20.20;99.90;;;;;;5074360;28;20080;-63
2023/08/03 05:06:26;;;;;;;2.05;0.80;;;20.40;99.90;;;;;;5074465;28;20497;-63
2023/08/03 05:08:52;;;;;;;2.63;0.70;;;20.40;99.90;;;;;;5074442;28;20531;-63
2023/08/03 05:11:18;;;;;;;5.63;1.00;;;20.60;99.90;;;;;;5069829;28;20021;-63
2023/08/03 05:13:43;;;;;;;2.22;0.55;;;20.80;99.90;;;;;;5054302;28;20044;-63
2023/08/03 05:16:09;;;;;;;4.57;0.88;;;20.80;99.90;;;;;;5053813;28;20078;-63
2023/08/03 05:18:35;;;;;;;2.45;0.85;;;20.90;99.90;;;;;;5053960;28;20111;-63
2023/08/03 05:21:00;;;;;;;1.77;0.47;;;21.10;99.90;;;;;;5053907;28;20040;-63
2023/08/03 05:23:26;;;;;;;1.38;0.60;;;21.10;99.90;;;;;;5053579;28;20045;-63
2023/08/03 05:25:56;;;;;;;2.85;0.60;;;21.20;99.90;;;;;;5053644;28;20128;-63
2023/08/03 05:28:22;;;;;;;2.95;0.68;;;21.20;99.90;;;;;;5053874;28;20033;-64
2023/08/03 05:30:48;;;;;;;1.60;0.98;;;21.30;99.90;;;;;;5053053;28;20103;-63
2023/08/03 05:33:14;;;;;;;1.63;0.68;;;21.30;99.90;;;;;;5053651;28;20128;-63
2023/08/03 05:35:40;;;;;;;3.45;0.68;;;21.30;99.90;;;;;;5054131;28;20028;-66
2023/08/03 05:38:06;;;;;;;2.20;0.85;;;21.30;99.90;;;;;;5054848;28;20051;-66
2023/08/03 05:40:32;;;;;;;0.85;0.65;;;21.40;99.90;;;;;;5054608;28;20025;-66
2023/08/03 05:42:58;;;;;;;2.10;0.65;;;21.40;99.90;;;;;;5054046;28;20045;-66
2023/08/03 05:45:41;;;;;;;2.13;0.70;;;21.40;99.90;;;;;;5053812;28;20037;-66
2023/08/03 05:48:20;;;;;;;1.35;0.75;;;21.50;99.90;;;;;;5053731;28;20028;-66
2023/08/03 05:50:47;;;;;;;;;;;21.70;99.90;;;;;;5054115;28;20112;-67
2023/08/03 05:53:13;;;;;;;2.17;0.80;;;21.80;99.90;;;;;;5053479;28;20376;-66
2023/08/03 05:55:40;;;;;;;2.58;0.85;;;21.80;99.90;;;;;;5054357;28;20104;-66
2023/08/03 05:58:08;;;;;;;2.00;0.65;;;21.90;99.90;;;;;;5054290;28;20063;-65
2023/08/03 06:00:34;;;;;;;1.00;0.60;;;21.70;99.90;;;;;;5054833;28;20033;-66
2023/08/03 06:02:59;;;;;;;4.57;0.93;;;21.80;99.90;;;;;;5054711;28;20151;-66
2023/08/03 06:05:48;;;;;;;1.55;0.60;;;21.70;99.90;;;;;;5054715;28;20079;-66
2023/08/03 06:08:21;;;;;;;2.25;0.73;;;21.60;99.90;;;;;;5053580;28;20048;-66
2023/08/03 06:10:54;;;;;;;2.28;1.10;;;21.50;99.90;;;;;;5054413;28;20386;-66
2023/08/03 06:13:29;;;;;;;5.45;1.00;;;21.50;99.90;;;;;;5054607;28;20025;-62
2023/08/03 06:15:54;;;;;;;2.70;0.68;;;21.50;99.90;;;;;;5053199;28;20025;-62
2023/08/03 06:18:21;;;;;;;3.45;0.82;;;21.60;99.90;;;;;;5053218;28;20040;-63
2023/08/03 06:20:51;;;;;;;3.47;0.73;;;21.60;99.90;;;;;;5053552;28;20040;-66
2023/08/03 06:23:27;;;;;;;4.07;0.65;;;21.70;99.90;;;;;;5053065;28;20052;-62
2023/08/03 06:25:54;;;;;;;1.77;0.70;;;21.70;99.90;;;;;;5052437;28;20140;-62
2023/08/03 06:28:22;;;;;;;1.95;0.85;;;21.70;99.90;;;;;;5052944;28;20087;-62
2023/08/03 06:30:49;;;;;;;3.58;1.08;;;21.70;99.90;;;;;;5051795;28;20026;-62
2023/08/03 06:33:18;;;;;;;1.95;0.60;;;21.50;99.90;;;;;;5052158;28;20112;-62
2023/08/03 06:35:45;;;;;;;1.30;0.93;;;21.60;99.90;;;;;;5053167;28;20043;-62
2023/08/03 06:38:13;;;;;;;1.70;0.80;;;21.40;99.90;;;;;;5052035;28;20049;-62
2023/08/03 06:40:40;;;;;;;2.33;0.63;;;21.40;99.90;;;;;;5052917;28;20492;-63
2023/08/03 06:43:07;;;;;;;3.50;0.65;;;21.30;99.90;;;;;;5054241;28;20374;-62
2023/08/03 06:45:33;;;;;;;4.60;0.93;;;21.20;99.90;;;;;;5056932;28;20078;-62
2023/08/03 06:48:00;;;;;;;3.28;1.15;;;21.20;99.90;;;;;;5056897;28;20029;-63
2023/08/03 06:50:28;;;;;;;2.13;0.85;;;21.20;99.90;;;;;;5056691;28;20029;-62
2023/08/03 06:52:54;;;;;;;4.00;0.90;;;21.20;99.90;;;;;;5056680;28;20029;-62
2023/08/03 06:55:19;;;;;;;2.15;0.65;;;21.10;99.90;;;;;;5056709;28;20051;-63
2023/08/03 06:57:46;;;;;;;5.18;1.20;;;21.10;99.90;;;;;;5056923;28;20033;-62
2023/08/03 07:00:12;;;;;;;1.92;0.70;;;21.00;99.90;;;;;;5056280;28;20029;-63
2023/08/03 07:02:38;;;;;;;2.60;1.33;;;20.90;99.90;;;;;;5056392;28;20087;-62
2023/08/03 07:05:04;;;;;;;2.42;0.80;;;20.80;99.90;;;;;;5056401;28;20429;-62
2023/08/03 07:07:31;;;;;;;2.28;0.60;;;20.90;99.90;;;;;;5055123;28;20025;-62
2023/08/03 07:09:57;;;;;;;3.17;0.60;;;20.80;99.90;;;;;;5056047;28;20025;-62
2023/08/03 07:12:22;;;;;;;2.78;0.90;;;20.80;99.90;;;;;;5056212;28;20029;-65
2023/08/03 07:14:48;;;;;;;1.48;0.75;;;20.80;99.90;;;;;;5056138;28;20360;-67
2023/08/03 07:17:14;;;;;;;2.10;0.60;;;20.70;99.90;;;;;;5056400;28;20048;-66
2023/08/03 07:19:40;;;;;;;3.67;0.60;;;20.60;99.90;;;;;;5056158;28;20021;-66
2023/08/03 07:22:07;;;;;;;1.05;0.68;;;20.50;99.90;;;;;;5056140;28;20021;-66
2023/08/03 07:24:34;;;;;;;2.50;0.80;;;20.50;99.90;;;;;;5054957;28;20140;-66
2023/08/03 07:27:03;;;;;;;2.30;0.90;;;20.40;99.90;;;;;;5056181;28;20386;-66
2023/08/03 07:29:34;;;;;;;1.35;0.77;;;20.40;99.90;;;;;;5054610;28;20120;-66
2023/08/03 07:32:00;;;;;;;1.95;0.70;;;20.40;99.90;;;;;;5054744;28;20037;-65
2023/08/03 07:34:26;;;;;;;3.30;1.02;;;20.40;99.90;;;;;;5054482;28;20351;-64
2023/08/03 07:36:56;;;;;;;2.00;0.98;;;20.30;99.90;;;;;;5054604;28;20528;-64
2023/08/03 07:39:22;;;;;;;4.65;1.00;;;20.40;99.90;;;;;;5055483;28;20067;-65
2023/08/03 07:41:48;;;;;;;2.83;1.05;;;20.40;99.90;;;;;;5055760;28;20056;-64
2023/08/03 07:44:16;;;;;;;4.13;0.90;;;20.40;99.90;;;;;;5055880;28;20033;-64
2023/08/03 07:46:47;;;;;;;2.42;1.00;;;20.40;99.90;;;;;;5055779;28;20082;-64
2023/08/03 07:49:13;;;;;;;1.48;0.57;;;20.40;99.90;;;;;;5055807;28;20104;-65
2023/08/03 07:51:39;;;;;;;3.63;0.77;;;20.40;99.90;;;;;;5055341;28;20100;-64
2023/08/03 07:54:05;;;;;;;1.38;0.80;;;20.40;99.90;;;;;;5055056;28;20040;-69
2023/08/03 07:56:30;;;;;;;2.67;0.80;;;20.50;99.90;;;;;;5055548;28;20040;-64
2023/08/03 07:58:56;;;;;;;5.13;1.52;;;20.50;99.90;;;;;;5055188;28;20021;-64
2023/08/03 08:01:22;;;;;;;3.92;0.80;;;20.50;99.90;;;;;;5055590;28;20052;-64
2023/08/03 08:03:49;;;;;;;1.83;0.68;;;20.50;99.90;;;;;;5054033;28;20086;-64
2023/08/03 08:06:16;;;;;;;3.25;0.90;;;20.60;99.90;;;;;;5055030;28;20032;-65
2023/08/03 08:08:43;;;;;;;2.60;0.80;;;20.60;99.90;;;;;;5055129;28;20025;-64
2023/08/03 08:11:09;;;;;;;1.63;1.00;;;20.70;99.90;;;;;;5055118;28;20078;-64
2023/08/03 08:13:35;;;;;;;5.43;1.00;;;20.60;99.90;;;;;;5054929;28;20047;-64
2023/08/03 08:16:02;;;;;;;2.85;1.08;;;20.70;99.90;;;;;;5055124;28;20108;-65
2023/08/03 08:18:29;;;;;;;4.15;1.10;;;20.60;99.90;;;;;;5054950;28;20139;-65
2023/08/03 08:21:02;;;;;;;5.22;1.27;;;20.70;99.90;;;;;;5055220;28;20025;-64
2023/08/03 08:23:29;;;;;;;4.93;1.48;;;20.70;99.90;;;;;;5055020;28;20056;-64
2023/08/03 08:25:54;;;;;;;4.00;1.05;;;20.60;99.90;;;;;;5055064;28;20182;-64
2023/08/03 08:28:20;;;;;;;3.20;0.98;;;20.50;99.90;;;;;;5054992;28;20510;-65
2023/08/03 08:30:46;;;;;;;3.55;0.95;;;20.50;99.90;;;;;;5054801;28;20119;-64
2023/08/03 08:33:15;;;;;;;2.00;0.85;;;20.50;99.90;;;;;;5054743;28;20156;-65
2023/08/03 08:35:41;;;;;;;3.90;1.00;;;20.60;99.90;;;;;;5055055;28;20024;-64
2023/08/03 08:38:09;;;;;;;1.98;0.60;;;20.60;99.90;;;;;;5054571;28;20394;-65
2023/08/03 08:40:36;;;;;;;1.98;0.70;;;20.60;99.90;;;;;;5053322;28;20421;-64
2023/08/03 08:43:02;;;;;;;2.95;1.00;;;20.60;99.90;;;;;;5054835;28;20493;-64
2023/08/03 08:45:30;;;;;;;3.53;0.80;;;20.60;99.90;;;;;;5054179;28;20032;-64
2023/08/03 08:47:56;;;;;;;1.90;0.70;;;20.50;99.90;;;;;;5053420;28;20423;-64
2023/08/03 08:50:21;;;;;;;4.90;0.60;;;20.50;99.90;;;;;;5054480;28;20113;-64
2023/08/03 08:52:49;;;;;;;6.65;1.00;;;20.50;99.90;;;;;;5054381;28;20082;-65
2023/08/03 08:55:29;;;;;;;4.85;1.15;;;20.50;99.90;;;;;;5052817;28;20049;-64
2023/08/03 08:57:56;;;;;;;1.42;0.60;;;20.50;99.90;;;;;;5054409;28;20039;-65
2023/08/03 09:00:25;;;;;;;2.35;1.05;;;20.50;99.90;;;;;;5054565;28;20123;-64
2023/08/03 09:03:00;;;;;;;4.03;0.90;;;20.50;99.90;;;;;;5054701;28;20075;-65
2023/08/03 09:05:27;;;;;;;4.90;1.00;;;20.50;99.90;;;;;;5053772;28;20265;-64
2023/08/03 09:08:16;;;;;;;2.08;0.98;;;20.50;99.90;;;;;;5053918;28;20116;-65
2023/08/03 09:10:47;;;;;;;;;;;20.40;99.90;;;;;;5054359;28;20049;-64
2023/08/03 09:13:26;;;;;;;2.03;0.90;;;20.40;99.90;;;;;;5054549;28;20451;-64
2023/08/03 09:15:52;;;;;;;3.35;0.90;;;20.40;99.90;;;;;;5054075;28;20025;-64
2023/08/03 09:18:20;;;;;;;3.20;0.95;;;20.40;99.90;;;;;;5053836;28;20120;-65
2023/08/03 09:20:45;;;;;;;2.88;0.90;;;20.40;99.90;;;;;;5053682;28;20043;-64
2023/08/03 09:23:30;;;;;;;1.73;0.88;;;20.40;99.90;;;;;;5053828;28;20463;-64
2023/08/03 09:25:55;;;;;;;4.20;0.95;;;20.40;99.90;;;;;;5054219;28;20029;-64
2023/08/03 09:28:36;;;;;;;5.47;0.95;;;20.40;99.90;;;;;;5054000;28;20462;-65
2023/08/03 09:31:03;;;;;;;5.43;0.80;;;20.40;99.90;;;;;;5053930;28;20024;-65
2023/08/03 09:33:29;;;;;;;3.88;1.05;;;20.50;99.90;;;;;;5053545;28;20095;-65
2023/08/03 09:36:05;;;;;;;4.22;1.10;;;20.60;99.90;;;;;;5053878;28;20029;-65
2023/08/03 09:38:31;;;;;;;6.93;0.70;;;20.70;99.90;;;;;;5053885;28;20036;-65
2023/08/03 09:40:58;;;;;;;2.40;1.08;;;20.80;99.90;;;;;;5054462;28;20060;-65
2023/08/03 09:43:24;;;;;;;3.55;0.80;;;20.80;99.90;;;;;;5053836;28;20071;-65
2023/08/03 09:45:51;;;;;;;3.08;1.10;;;20.80;99.90;;;;;;5052798;28;20086;-65
2023/08/03 09:48:19;;;;;;;3.88;0.80;;;20.80;99.90;;;;;;5053864;28;20033;-65
2023/08/03 09:50:50;;;;;;;3.92;0.80;;;20.90;99.90;;;;;;5053685;28;20466;-65
2023/08/03 09:53:19;;;;;;;3.90;0.50;;;20.80;99.90;;;;;;5053865;28;20025;-65
2023/08/03 09:55:58;;;;;;;4.22;0.90;;;20.80;99.90;;;;;;5053343;28;20437;-65
2023/08/03 09:58:39;;;;;;;2.50;0.82;;;20.80;99.90;;;;;;5053467;28;20467;-65
2023/08/03 10:01:09;;;;;;;1.27;0.60;;;20.90;99.90;;;;;;5053510;28;20021;-65
2023/08/03 10:03:37;;;;;;;2.17;0.68;;;20.90;99.90;;;;;;5052472;28;20029;-65
2023/08/03 10:06:07;;;;;;;1.52;0.60;;;20.80;99.90;;;;;;5052952;28;20471;-65
2023/08/03 10:08:46;;;;;;;2.17;0.70;;;20.80;99.90;;;;;;5053711;28;20374;-67
2023/08/03 10:11:12;;;;;;;2.05;0.70;;;20.90;99.90;;;;;;5053321;28;20024;-67
2023/08/03 10:13:44;;;;;;;1.73;0.63;;;21.10;99.90;;;;;;5053951;28;20128;-67
2023/08/03 10:16:10;;;;;;;3.53;0.73;;;21.30;99.90;;;;;;5053390;28;20104;-66
2023/08/03 10:18:37;;;;;;;6.78;1.05;;;21.40;99.90;;;;;;5056358;28;20478;-66
2023/08/03 10:21:03;;;;;;;5.28;0.82;;;21.40;99.90;;;;;;5057157;28;20374;-66
2023/08/03 10:23:29;;;;;;;2.00;0.70;;;21.50;99.90;;;;;;5057358;28;20057;-67
2023/08/03 10:26:01;;;;;;;2.00;0.50;;;21.50;99.90;;;;;;5056950;28;20480;-68
2023/08/03 10:28:39;;;;;;;2.40;0.75;;;21.50;99.90;;;;;;5056116;28;20147;-69
2023/08/03 10:31:15;;;;;;;4.55;0.60;;;21.60;99.90;;;;;;5057508;28;20052;-67
2023/08/03 10:33:46;;;;;;;1.70;0.57;;;21.60;99.90;;;;;;5057362;28;20029;-68
2023/08/03 10:36:30;;;;;;;1.75;0.50;;;21.80;99.90;;;;;;5055779;28;20039;-65
2023/08/03 10:39:05;;;;;;;0.90;0.47;;;21.80;99.90;;;;;;5056864;28;20064;-65
2023/08/03 10:41:36;;;;;;;3.78;0.80;;;21.80;99.90;;;;;;5056388;28;20032;-65
2023/08/03 10:44:13;;;;;;;2.63;0.60;;;21.80;99.90;;;;;;5056876;28;20028;-65
2023/08/03 10:46:40;;;;;;;1.70;0.70;;;21.80;99.90;;;;;;5057077;28;20033;-65
2023/08/03 10:49:17;;;;;;;3.53;0.63;;;21.80;99.90;;;;;;5055799;28;20470;-65
2023/08/03 10:51:44;;;;;;;1.55;0.45;;;21.70;99.90;;;;;;5056866;28;20302;-65
2023/08/03 10:54:09;;;;;;;2.63;0.70;;;21.70;99.90;;;;;;5056290;28;20056;-65
2023/08/03 10:56:35;;;;;;;2.08;0.60;;;21.70;99.90;;;;;;5055282;28;20426;-65
2023/08/03 10:59:03;;;;;;;3.35;0.95;;;21.70;99.90;;;;;;5056386;28;20035;-65
2023/08/03 11:01:28;;;;;;;2.08;0.70;;;21.70;99.90;;;;;;5056672;28;20029;-65
2023/08/03 11:03:54;;;;;;;4.10;0.80;;;21.60;99.90;;;;;;5055303;28;20032;-64
2023/08/03 11:06:20;;;;;;;4.68;1.20;;;21.50;99.90;;;;;;5056153;28;20025;-65
2023/08/03 11:08:47;;;;;;;3.42;0.80;;;21.40;99.90;;;;;;5056679;28;20532;-64
2023/08/03 11:11:16;;;;;;;1.58;0.50;;;21.30;99.90;;;;;;5056152;28;20025;-65
2023/08/03 11:13:44;;;;;;;3.67;0.93;;;21.20;99.90;;;;;;5056333;28;20025;-65
2023/08/03 11:16:15;;;;;;;2.00;0.60;;;21.10;99.90;;;;;;5056580;28;20025;-65
2023/08/03 11:18:47;;;;;;;4.45;0.80;;;21.10;99.90;;;;;;5056234;28;20064;-65
2023/08/03 11:21:14;;;;;;;1.02;0.65;;;21.00;99.90;;;;;;5054804;28;20049;-65
2023/08/03 11:23:39;;;;;;;2.33;0.60;;;20.90;99.90;;;;;;5056178;28;20478;-65
2023/08/03 11:26:08;;;;;;;2.53;0.52;;;20.80;99.90;;;;;;5055727;28;20059;-65
2023/08/03 11:28:43;;;;;;;2.58;0.70;;;20.80;99.90;;;;;;5054808;28;20029;-65
2023/08/03 11:31:19;;;;;;;4.00;0.70;;;20.80;99.90;;;;;;5055961;28;20065;-65
2023/08/03 11:33:52;;;;;;;2.35;0.50;;;20.80;99.90;;;;;;5055674;28;20059;-65
2023/08/03 11:36:19;;;;;;;4.45;0.70;;;20.80;99.90;;;;;;5055886;28;20033;-65
2023/08/03 11:38:45;;;;;;;4.15;0.60;;;20.90;99.90;;;;;;5056147;28;20060;-64
2023/08/03 11:41:15;;;;;;;1.33;0.65;;;21.00;99.90;;;;;;5055735;28;20056;-65
2023/08/03 11:43:41;;;;;;;2.65;0.70;;;21.00;99.90;;;;;;5056011;28;20021;-65
2023/08/03 11:46:07;;;;;;;3.45;0.63;;;21.00;99.90;;;;;;5055671;28;20021;-59
2023/08/03 11:48:32;;;;;;;2.33;0.63;;;20.90;99.90;;;;;;5054536;28;20383;-60
2023/08/03 11:50:58;;;;;;;3.22;0.70;;;20.80;99.90;;;;;;5056127;28;20029;-59
2023/08/03 11:53:25;;;;;;;3.47;0.70;;;20.80;99.90;;;;;;5055566;28;20095;-59
2023/08/03 11:55:51;;;;;;;1.58;0.63;;;20.90;99.90;;;;;;5055580;28;20029;-59
2023/08/03 11:58:22;;;;;;;3.40;0.63;;;21.00;99.90;;;;;;5054452;28;20116;-59
2023/08/03 12:00:48;;;;;;;5.75;0.85;;;21.20;99.90;;;;;;5055757;28;20052;-59
2023/08/03 12:03:33;;;;;;;3.50;0.57;;;21.30;99.90;;;;;;5054141;28;20521;-60
2023/08/03 12:06:05;;;;;;;1.98;0.40;;;21.20;99.90;;;;;;5055296;28;20045;-57
2023/08/03 12:08:39;;;;;;;0.77;0.30;;;21.10;99.90;;;;;;5054715;28;20111;-56
2023/08/03 12:11:05;;;;;;;2.17;0.80;;;21.00;99.90;;;;;;5055253;28;20031;-56
2023/08/03 12:13:30;;;;;;;2.88;0.55;;;20.90;99.90;;;;;;5053874;28;20024;-56
2023/08/03 12:15:56;;;;;;;1.67;0.35;;;20.90;99.90;;;;;;5054649;28;20467;-57
2023/08/03 12:18:22;;;;;;;1.35;0.50;;;20.80;99.90;;;;;;5054767;28;20037;-57
2023/08/03 12:20:49;;;;;;;2.17;0.20;;;20.80;99.90;;;;;;5055269;28;20025;-59
2023/08/03 12:23:19;;;;;;;2.65;1.00;;;20.80;99.90;;;;;;5053299;28;20091;-57
2023/08/03 12:25:45;;;;;;;2.83;0.75;;;20.60;99.90;;;;;;5054909;28;20048;-56
2023/08/03 12:28:11;;;;;;;3.53;1.30;;;20.50;99.90;;;;;;5054795;28;20029;-58
2023/08/03 12:30:37;;;;;;;2.08;0.45;;;20.50;99.90;;;;;;5054721;28;20031;-57
2023/08/03 12:33:05;;;;;;;1.25;0.50;;;20.50;99.90;;;;;;5054804;28;20052;-57
2023/08/03 12:35:30;;;;;;;4.65;0.57;;;20.50;99.90;;;;;;5054382;28;20056;-56
2023/08/03 12:37:56;;;;;;;2.78;0.40;;;20.50;99.90;;;;;;5053161;28;20072;-57
2023/08/03 12:40:22;;;;;;;6.90;0.70;;;20.50;99.90;;;;;;5054109;28;20068;-57
2023/08/03 12:42:47;;;;;;;3.33;0.40;;;20.60;99.90;;;;;;5053294;28;20028;-56
2023/08/03 12:45:13;;;;;;;1.42;0.95;;;20.70;99.90;;;;;;5054182;28;20033;-57
2023/08/03 12:47:38;;;;;;;1.65;0.40;;;20.80;99.90;;;;;;5052871;28;20025;-57
2023/08/03 12:50:05;;;;;;;1.85;0.60;;;20.70;99.90;;;;;;5054404;28;20150;-57